sensor_id;sensor_type;location;lat;lon;timestamp;P1;durP1;ratioP1;P2;durP2;ratioP2
25687;SDS011;17407;51.120;3.702;2023-04-08T00:01:08;19.95;;;7.38;;
25687;SDS011;17407;51.120;3.702;2023-04-08T00:03:34;17.77;;;7.53;;
25687;SDS011;17407;51.120;3.702;2023-04-08T00:05:59;19.25;;;7.15;;
25687;SDS011;17407;51.120;3.702;2023-04-08T00:08:27;15.52;;;7.40;;
25687;SDS011;17407;51.120;3.702;2023-04-08T00:10:52;18.08;;;7.60;;
25687;SDS011;17407;51.120;3.702;2023-04-08T00:13:18;19.88;;;8.10;;
25687;SDS011;17407;51.120;3.702;2023-04-08T00:15:44;18.75;;;7.55;;
25687;SDS011;17407;51.120;3.702;2023-04-08T00:18:09;19.25;;;7.40;;
25687;SDS011;17407;51.120;3.702;2023-04-08T00:20:35;13.70;;;6.75;;
25687;SDS011;17407;51.120;3.702;2023-04-08T00:23:01;16.13;;;7.47;;
25687;SDS011;17407;51.120;3.702;2023-04-08T00:25:27;11.18;;;6.68;;
25687;SDS011;17407;51.120;3.702;2023-04-08T00:27:52;19.95;;;7.57;;
25687;SDS011;17407;51.120;3.702;2023-04-08T00:30:18;16.48;;;7.72;;
25687;SDS011;17407;51.120;3.702;2023-04-08T00:32:44;23.20;;;7.40;;
25687;SDS011;17407;51.120;3.702;2023-04-08T00:35:10;22.08;;;7.28;;
25687;SDS011;17407;51.120;3.702;2023-04-08T00:37:37;19.95;;;7.50;;
25687;SDS011;17407;51.120;3.702;2023-04-08T00:40:02;13.15;;;7.00;;
25687;SDS011;17407;51.120;3.702;2023-04-08T00:42:29;15.98;;;7.38;;
25687;SDS011;17407;51.120;3.702;2023-04-08T00:44:55;16.50;;;8.25;;
25687;SDS011;17407;51.120;3.702;2023-04-08T00:47:21;14.05;;;6.88;;
25687;SDS011;17407;51.120;3.702;2023-04-08T00:49:46;15.90;;;7.47;;
25687;SDS011;17407;51.120;3.702;2023-04-08T00:52:12;20.85;;;7.80;;
25687;SDS011;17407;51.120;3.702;2023-04-08T00:54:38;13.18;;;8.18;;
25687;SDS011;17407;51.120;3.702;2023-04-08T00:57:04;14.73;;;7.57;;
25687;SDS011;17407;51.120;3.702;2023-04-08T00:59:30;14.27;;;7.95;;
25687;SDS011;17407;51.120;3.702;2023-04-08T01:02:05;13.85;;;7.38;;
25687;SDS011;17407;51.120;3.702;2023-04-08T01:07:25;16.45;;;7.90;;
25687;SDS011;17407;51.120;3.702;2023-04-08T01:09:56;12.00;;;7.47;;
25687;SDS011;17407;51.120;3.702;2023-04-08T01:12:27;18.70;;;8.05;;
25687;SDS011;17407;51.120;3.702;2023-04-08T01:14:56;16.75;;;8.10;;
25687;SDS011;17407;51.120;3.702;2023-04-08T01:17:30;14.88;;;7.57;;
25687;SDS011;17407;51.120;3.702;2023-04-08T01:19:58;16.70;;;7.55;;
25687;SDS011;17407;51.120;3.702;2023-04-08T01:25:00;20.20;;;8.18;;
25687;SDS011;17407;51.120;3.702;2023-04-08T01:27:30;14.00;;;7.60;;
25687;SDS011;17407;51.120;3.702;2023-04-08T01:29:57;11.93;;;8.07;;
25687;SDS011;17407;51.120;3.702;2023-04-08T01:32:25;16.50;;;8.95;;
25687;SDS011;17407;51.120;3.702;2023-04-08T01:34:53;12.45;;;8.18;;
25687;SDS011;17407;51.120;3.702;2023-04-08T01:37:20;15.60;;;8.27;;
25687;SDS011;17407;51.120;3.702;2023-04-08T01:39:47;13.82;;;8.13;;
25687;SDS011;17407;51.120;3.702;2023-04-08T01:42:14;15.35;;;8.52;;
25687;SDS011;17407;51.120;3.702;2023-04-08T01:44:40;22.25;;;8.40;;
25687;SDS011;17407;51.120;3.702;2023-04-08T01:47:08;15.80;;;8.82;;
25687;SDS011;17407;51.120;3.702;2023-04-08T01:49:37;15.38;;;9.15;;
25687;SDS011;17407;51.120;3.702;2023-04-08T01:52:03;17.00;;;9.65;;
25687;SDS011;17407;51.120;3.702;2023-04-08T01:54:30;21.02;;;9.77;;
25687;SDS011;17407;51.120;3.702;2023-04-08T01:56:56;16.15;;;9.27;;
25687;SDS011;17407;51.120;3.702;2023-04-08T01:59:23;16.20;;;8.98;;
25687;SDS011;17407;51.120;3.702;2023-04-08T02:01:53;18.77;;;8.98;;
25687;SDS011;17407;51.120;3.702;2023-04-08T02:04:20;16.30;;;8.90;;
25687;SDS011;17407;51.120;3.702;2023-04-08T02:06:46;19.23;;;8.88;;
25687;SDS011;17407;51.120;3.702;2023-04-08T02:09:12;18.02;;;9.20;;
25687;SDS011;17407;51.120;3.702;2023-04-08T02:11:37;21.50;;;10.02;;
25687;SDS011;17407;51.120;3.702;2023-04-08T02:14:03;12.65;;;8.65;;
25687;SDS011;17407;51.120;3.702;2023-04-08T02:17:04;11.80;;;8.85;;
25687;SDS011;17407;51.120;3.702;2023-04-08T02:19:31;18.73;;;9.70;;
25687;SDS011;17407;51.120;3.702;2023-04-08T02:22:30;12.85;;;8.93;;
25687;SDS011;17407;51.120;3.702;2023-04-08T02:24:59;23.20;;;9.18;;
25687;SDS011;17407;51.120;3.702;2023-04-08T02:27:27;19.48;;;9.02;;
25687;SDS011;17407;51.120;3.702;2023-04-08T02:29:55;20.10;;;10.52;;
25687;SDS011;17407;51.120;3.702;2023-04-08T02:32:22;18.13;;;9.18;;
25687;SDS011;17407;51.120;3.702;2023-04-08T02:34:50;16.05;;;9.75;;
25687;SDS011;17407;51.120;3.702;2023-04-08T02:37:16;13.25;;;9.02;;
25687;SDS011;17407;51.120;3.702;2023-04-08T02:39:42;14.35;;;9.05;;
25687;SDS011;17407;51.120;3.702;2023-04-08T02:42:08;21.52;;;9.95;;
25687;SDS011;17407;51.120;3.702;2023-04-08T02:44:33;16.33;;;9.43;;
25687;SDS011;17407;51.120;3.702;2023-04-08T02:46:59;16.10;;;9.00;;
25687;SDS011;17407;51.120;3.702;2023-04-08T02:49:24;19.05;;;10.23;;
25687;SDS011;17407;51.120;3.702;2023-04-08T02:51:50;20.08;;;9.88;;
25687;SDS011;17407;51.120;3.702;2023-04-08T02:54:16;17.88;;;9.57;;
25687;SDS011;17407;51.120;3.702;2023-04-08T02:56:41;17.85;;;10.23;;
25687;SDS011;17407;51.120;3.702;2023-04-08T02:59:07;19.92;;;10.50;;
25687;SDS011;17407;51.120;3.702;2023-04-08T03:01:32;20.77;;;10.07;;
25687;SDS011;17407;51.120;3.702;2023-04-08T03:03:58;19.17;;;10.00;;
25687;SDS011;17407;51.120;3.702;2023-04-08T03:06:24;17.92;;;9.90;;
25687;SDS011;17407;51.120;3.702;2023-04-08T03:08:50;18.13;;;9.82;;
25687;SDS011;17407;51.120;3.702;2023-04-08T03:11:16;25.95;;;10.68;;
25687;SDS011;17407;51.120;3.702;2023-04-08T03:13:42;14.85;;;9.02;;
25687;SDS011;17407;51.120;3.702;2023-04-08T03:16:07;16.67;;;9.45;;
25687;SDS011;17407;51.120;3.702;2023-04-08T03:18:33;22.92;;;9.57;;
25687;SDS011;17407;51.120;3.702;2023-04-08T03:20:58;17.05;;;10.20;;
25687;SDS011;17407;51.120;3.702;2023-04-08T03:23:25;20.67;;;10.13;;
25687;SDS011;17407;51.120;3.702;2023-04-08T03:25:51;17.40;;;9.80;;
25687;SDS011;17407;51.120;3.702;2023-04-08T03:28:16;19.25;;;10.15;;
25687;SDS011;17407;51.120;3.702;2023-04-08T03:30:42;18.13;;;9.55;;
25687;SDS011;17407;51.120;3.702;2023-04-08T03:33:08;18.13;;;9.95;;
25687;SDS011;17407;51.120;3.702;2023-04-08T03:35:33;16.73;;;9.90;;
25687;SDS011;17407;51.120;3.702;2023-04-08T03:37:59;19.83;;;9.88;;
25687;SDS011;17407;51.120;3.702;2023-04-08T03:40:25;17.30;;;9.80;;
25687;SDS011;17407;51.120;3.702;2023-04-08T03:42:51;15.68;;;9.88;;
25687;SDS011;17407;51.120;3.702;2023-04-08T03:45:16;18.48;;;9.32;;
25687;SDS011;17407;51.120;3.702;2023-04-08T03:47:42;16.55;;;8.75;;
25687;SDS011;17407;51.120;3.702;2023-04-08T03:50:07;18.17;;;9.82;;
25687;SDS011;17407;51.120;3.702;2023-04-08T03:52:34;16.42;;;9.82;;
25687;SDS011;17407;51.120;3.702;2023-04-08T03:54:59;14.45;;;10.02;;
25687;SDS011;17407;51.120;3.702;2023-04-08T03:57:25;16.25;;;10.15;;
25687;SDS011;17407;51.120;3.702;2023-04-08T03:59:50;12.43;;;9.05;;
25687;SDS011;17407;51.120;3.702;2023-04-08T04:02:16;15.52;;;9.05;;
25687;SDS011;17407;51.120;3.702;2023-04-08T04:04:42;19.02;;;9.77;;
25687;SDS011;17407;51.120;3.702;2023-04-08T04:07:07;17.40;;;9.77;;
25687;SDS011;17407;51.120;3.702;2023-04-08T04:09:33;18.98;;;9.52;;
25687;SDS011;17407;51.120;3.702;2023-04-08T04:11:59;16.13;;;9.70;;
25687;SDS011;17407;51.120;3.702;2023-04-08T04:14:25;17.33;;;8.88;;
25687;SDS011;17407;51.120;3.702;2023-04-08T04:16:50;12.52;;;8.73;;
25687;SDS011;17407;51.120;3.702;2023-04-08T04:19:16;19.63;;;10.93;;
25687;SDS011;17407;51.120;3.702;2023-04-08T04:21:42;16.15;;;9.25;;
25687;SDS011;17407;51.120;3.702;2023-04-08T04:24:08;15.20;;;8.88;;
25687;SDS011;17407;51.120;3.702;2023-04-08T04:26:34;16.48;;;10.23;;
25687;SDS011;17407;51.120;3.702;2023-04-08T04:29:02;19.48;;;10.10;;
25687;SDS011;17407;51.120;3.702;2023-04-08T04:31:28;15.50;;;9.60;;
25687;SDS011;17407;51.120;3.702;2023-04-08T04:33:54;15.90;;;9.73;;
25687;SDS011;17407;51.120;3.702;2023-04-08T04:36:20;21.85;;;10.45;;
25687;SDS011;17407;51.120;3.702;2023-04-08T04:38:45;21.38;;;9.80;;
25687;SDS011;17407;51.120;3.702;2023-04-08T04:41:11;21.08;;;11.20;;
25687;SDS011;17407;51.120;3.702;2023-04-08T04:43:37;24.35;;;13.07;;
25687;SDS011;17407;51.120;3.702;2023-04-08T04:46:02;21.88;;;13.27;;
25687;SDS011;17407;51.120;3.702;2023-04-08T04:48:31;25.35;;;14.13;;
25687;SDS011;17407;51.120;3.702;2023-04-08T04:50:58;29.70;;;17.92;;
25687;SDS011;17407;51.120;3.702;2023-04-08T04:53:24;29.60;;;15.48;;
25687;SDS011;17407;51.120;3.702;2023-04-08T04:55:50;22.88;;;14.63;;
25687;SDS011;17407;51.120;3.702;2023-04-08T04:58:16;21.35;;;12.75;;
25687;SDS011;17407;51.120;3.702;2023-04-08T05:00:42;19.05;;;12.55;;
25687;SDS011;17407;51.120;3.702;2023-04-08T05:03:07;21.77;;;12.25;;
25687;SDS011;17407;51.120;3.702;2023-04-08T05:05:33;17.55;;;11.68;;
25687;SDS011;17407;51.120;3.702;2023-04-08T05:07:59;19.67;;;11.93;;
25687;SDS011;17407;51.120;3.702;2023-04-08T05:10:24;16.52;;;10.98;;
25687;SDS011;17407;51.120;3.702;2023-04-08T05:12:50;18.08;;;10.57;;
25687;SDS011;17407;51.120;3.702;2023-04-08T05:15:16;13.77;;;9.15;;
25687;SDS011;17407;51.120;3.702;2023-04-08T05:17:43;18.40;;;10.32;;
25687;SDS011;17407;51.120;3.702;2023-04-08T05:20:09;16.85;;;9.38;;
25687;SDS011;17407;51.120;3.702;2023-04-08T05:22:35;15.25;;;8.80;;
25687;SDS011;17407;51.120;3.702;2023-04-08T05:25:01;13.85;;;8.13;;
25687;SDS011;17407;51.120;3.702;2023-04-08T05:27:26;15.57;;;9.70;;
25687;SDS011;17407;51.120;3.702;2023-04-08T05:29:53;18.40;;;9.43;;
25687;SDS011;17407;51.120;3.702;2023-04-08T05:32:18;14.82;;;9.35;;
25687;SDS011;17407;51.120;3.702;2023-04-08T05:34:44;13.32;;;9.70;;
25687;SDS011;17407;51.120;3.702;2023-04-08T05:37:10;15.50;;;8.63;;
25687;SDS011;17407;51.120;3.702;2023-04-08T05:39:35;16.00;;;9.90;;
25687;SDS011;17407;51.120;3.702;2023-04-08T05:42:01;17.83;;;9.63;;
25687;SDS011;17407;51.120;3.702;2023-04-08T05:44:27;14.15;;;9.20;;
25687;SDS011;17407;51.120;3.702;2023-04-08T05:46:52;15.52;;;9.90;;
25687;SDS011;17407;51.120;3.702;2023-04-08T05:49:19;14.48;;;9.90;;
25687;SDS011;17407;51.120;3.702;2023-04-08T05:51:45;18.25;;;11.18;;
25687;SDS011;17407;51.120;3.702;2023-04-08T05:54:11;14.60;;;9.73;;
25687;SDS011;17407;51.120;3.702;2023-04-08T05:56:37;15.38;;;9.50;;
25687;SDS011;17407;51.120;3.702;2023-04-08T05:59:02;14.77;;;10.50;;
25687;SDS011;17407;51.120;3.702;2023-04-08T06:01:28;16.65;;;10.23;;
25687;SDS011;17407;51.120;3.702;2023-04-08T06:03:54;14.65;;;9.88;;
25687;SDS011;17407;51.120;3.702;2023-04-08T06:06:20;17.33;;;10.48;;
25687;SDS011;17407;51.120;3.702;2023-04-08T06:08:46;20.55;;;11.18;;
25687;SDS011;17407;51.120;3.702;2023-04-08T06:11:12;17.35;;;10.60;;
25687;SDS011;17407;51.120;3.702;2023-04-08T06:13:38;17.95;;;9.48;;
25687;SDS011;17407;51.120;3.702;2023-04-08T06:16:10;14.45;;;9.88;;
25687;SDS011;17407;51.120;3.702;2023-04-08T06:18:36;17.30;;;9.80;;
25687;SDS011;17407;51.120;3.702;2023-04-08T06:21:02;16.70;;;9.88;;
25687;SDS011;17407;51.120;3.702;2023-04-08T06:23:28;16.65;;;9.55;;
25687;SDS011;17407;51.120;3.702;2023-04-08T06:25:54;13.57;;;9.52;;
25687;SDS011;17407;51.120;3.702;2023-04-08T06:28:19;16.48;;;9.38;;
25687;SDS011;17407;51.120;3.702;2023-04-08T06:30:45;14.45;;;9.82;;
25687;SDS011;17407;51.120;3.702;2023-04-08T06:33:10;17.45;;;10.00;;
25687;SDS011;17407;51.120;3.702;2023-04-08T06:35:36;12.13;;;10.15;;
25687;SDS011;17407;51.120;3.702;2023-04-08T06:38:02;16.35;;;10.65;;
25687;SDS011;17407;51.120;3.702;2023-04-08T06:40:28;14.65;;;10.05;;
25687;SDS011;17407;51.120;3.702;2023-04-08T06:42:54;19.63;;;10.23;;
25687;SDS011;17407;51.120;3.702;2023-04-08T06:45:22;13.52;;;9.45;;
25687;SDS011;17407;51.120;3.702;2023-04-08T06:47:48;15.77;;;9.98;;
25687;SDS011;17407;51.120;3.702;2023-04-08T06:50:13;14.30;;;9.77;;
25687;SDS011;17407;51.120;3.702;2023-04-08T06:52:39;13.80;;;10.70;;
25687;SDS011;17407;51.120;3.702;2023-04-08T06:55:05;15.50;;;9.55;;
25687;SDS011;17407;51.120;3.702;2023-04-08T06:57:31;20.85;;;10.55;;
25687;SDS011;17407;51.120;3.702;2023-04-08T06:59:56;19.65;;;11.40;;
25687;SDS011;17407;51.120;3.702;2023-04-08T07:02:24;15.30;;;10.07;;
25687;SDS011;17407;51.120;3.702;2023-04-08T07:04:50;20.98;;;9.65;;
25687;SDS011;17407;51.120;3.702;2023-04-08T07:07:16;12.65;;;9.57;;
25687;SDS011;17407;51.120;3.702;2023-04-08T07:09:41;14.95;;;9.98;;
25687;SDS011;17407;51.120;3.702;2023-04-08T07:12:10;17.25;;;9.90;;
25687;SDS011;17407;51.120;3.702;2023-04-08T07:14:36;13.38;;;9.52;;
25687;SDS011;17407;51.120;3.702;2023-04-08T07:17:01;12.52;;;9.55;;
25687;SDS011;17407;51.120;3.702;2023-04-08T07:19:27;16.67;;;10.25;;
25687;SDS011;17407;51.120;3.702;2023-04-08T07:21:53;15.75;;;10.45;;
25687;SDS011;17407;51.120;3.702;2023-04-08T07:24:18;16.25;;;10.63;;
25687;SDS011;17407;51.120;3.702;2023-04-08T07:26:44;20.67;;;11.23;;
25687;SDS011;17407;51.120;3.702;2023-04-08T07:29:10;17.25;;;11.57;;
25687;SDS011;17407;51.120;3.702;2023-04-08T07:31:35;23.25;;;10.68;;
25687;SDS011;17407;51.120;3.702;2023-04-08T07:34:01;21.20;;;11.07;;
25687;SDS011;17407;51.120;3.702;2023-04-08T07:36:27;17.73;;;11.13;;
25687;SDS011;17407;51.120;3.702;2023-04-08T07:38:52;19.80;;;10.20;;
25687;SDS011;17407;51.120;3.702;2023-04-08T07:41:18;18.98;;;11.02;;
25687;SDS011;17407;51.120;3.702;2023-04-08T07:43:45;20.40;;;10.48;;
25687;SDS011;17407;51.120;3.702;2023-04-08T07:46:10;17.08;;;10.25;;
25687;SDS011;17407;51.120;3.702;2023-04-08T07:48:36;20.63;;;10.23;;
25687;SDS011;17407;51.120;3.702;2023-04-08T07:51:06;19.08;;;10.18;;
25687;SDS011;17407;51.120;3.702;2023-04-08T07:53:33;20.63;;;9.63;;
25687;SDS011;17407;51.120;3.702;2023-04-08T07:56:00;18.50;;;10.30;;
25687;SDS011;17407;51.120;3.702;2023-04-08T07:58:28;15.25;;;8.88;;
25687;SDS011;17407;51.120;3.702;2023-04-08T08:00:53;13.68;;;9.02;;
25687;SDS011;17407;51.120;3.702;2023-04-08T08:03:21;15.90;;;9.13;;
25687;SDS011;17407;51.120;3.702;2023-04-08T08:05:47;16.33;;;8.77;;
25687;SDS011;17407;51.120;3.702;2023-04-08T08:08:13;18.92;;;9.65;;
25687;SDS011;17407;51.120;3.702;2023-04-08T08:10:39;15.80;;;8.93;;
25687;SDS011;17407;51.120;3.702;2023-04-08T08:13:05;18.58;;;9.05;;
25687;SDS011;17407;51.120;3.702;2023-04-08T08:15:31;13.95;;;9.27;;
25687;SDS011;17407;51.120;3.702;2023-04-08T08:17:57;19.90;;;9.50;;
25687;SDS011;17407;51.120;3.702;2023-04-08T08:20:23;22.40;;;9.60;;
25687;SDS011;17407;51.120;3.702;2023-04-08T08:22:48;12.13;;;7.55;;
25687;SDS011;17407;51.120;3.702;2023-04-08T08:25:14;13.95;;;9.20;;
25687;SDS011;17407;51.120;3.702;2023-04-08T08:27:41;16.88;;;10.13;;
25687;SDS011;17407;51.120;3.702;2023-04-08T08:30:07;14.75;;;9.57;;
25687;SDS011;17407;51.120;3.702;2023-04-08T08:32:33;22.33;;;10.93;;
25687;SDS011;17407;51.120;3.702;2023-04-08T08:34:59;22.52;;;10.50;;
25687;SDS011;17407;51.120;3.702;2023-04-08T08:37:25;20.77;;;10.45;;
25687;SDS011;17407;51.120;3.702;2023-04-08T08:39:51;19.95;;;11.57;;
25687;SDS011;17407;51.120;3.702;2023-04-08T08:42:18;19.88;;;11.00;;
25687;SDS011;17407;51.120;3.702;2023-04-08T08:44:47;18.00;;;11.02;;
25687;SDS011;17407;51.120;3.702;2023-04-08T08:47:16;15.88;;;10.68;;
25687;SDS011;17407;51.120;3.702;2023-04-08T08:49:43;21.88;;;11.93;;
25687;SDS011;17407;51.120;3.702;2023-04-08T08:52:09;18.52;;;11.75;;
25687;SDS011;17407;51.120;3.702;2023-04-08T08:54:35;23.02;;;11.82;;
25687;SDS011;17407;51.120;3.702;2023-04-08T08:57:02;21.38;;;11.77;;
25687;SDS011;17407;51.120;3.702;2023-04-08T08:59:27;23.35;;;12.40;;
25687;SDS011;17407;51.120;3.702;2023-04-08T09:01:53;22.25;;;12.18;;
25687;SDS011;17407;51.120;3.702;2023-04-08T09:04:19;23.52;;;13.20;;
25687;SDS011;17407;51.120;3.702;2023-04-08T09:06:46;23.08;;;12.25;;
25687;SDS011;17407;51.120;3.702;2023-04-08T09:09:15;21.95;;;13.60;;
25687;SDS011;17407;51.120;3.702;2023-04-08T09:11:41;22.63;;;13.18;;
25687;SDS011;17407;51.120;3.702;2023-04-08T09:14:20;21.40;;;12.50;;
25687;SDS011;17407;51.120;3.702;2023-04-08T09:16:47;25.17;;;13.73;;
25687;SDS011;17407;51.120;3.702;2023-04-08T09:19:12;20.90;;;13.40;;
25687;SDS011;17407;51.120;3.702;2023-04-08T09:21:39;22.40;;;12.82;;
25687;SDS011;17407;51.120;3.702;2023-04-08T09:24:05;24.27;;;13.55;;
25687;SDS011;17407;51.120;3.702;2023-04-08T09:26:31;22.00;;;13.48;;
25687;SDS011;17407;51.120;3.702;2023-04-08T09:29:07;27.55;;;15.85;;
25687;SDS011;17407;51.120;3.702;2023-04-08T09:34:12;31.35;;;15.82;;
25687;SDS011;17407;51.120;3.702;2023-04-08T09:36:40;28.13;;;15.35;;
25687;SDS011;17407;51.120;3.702;2023-04-08T09:39:10;24.73;;;15.35;;
25687;SDS011;17407;51.120;3.702;2023-04-08T09:41:36;25.55;;;14.85;;
25687;SDS011;17407;51.120;3.702;2023-04-08T09:44:03;24.30;;;15.38;;
25687;SDS011;17407;51.120;3.702;2023-04-08T09:49:37;30.08;;;16.33;;
25687;SDS011;17407;51.120;3.702;2023-04-08T09:52:10;24.40;;;15.25;;
25687;SDS011;17407;51.120;3.702;2023-04-08T09:54:51;25.77;;;15.20;;
25687;SDS011;17407;51.120;3.702;2023-04-08T09:57:43;31.35;;;16.27;;
25687;SDS011;17407;51.120;3.702;2023-04-08T10:03:26;28.90;;;15.05;;
25687;SDS011;17407;51.120;3.702;2023-04-08T10:05:27;29.60;;;16.33;;
25687;SDS011;17407;51.120;3.702;2023-04-08T10:25:31;28.52;;;16.40;;
